Frostburg, MD

1:30 PM EST on February 09, 2016 (GMT -0500)
Frost Avenue, Frostburg, MD | | Change Station
CLOSE
Current Station
Personal Weather Station
Location: Frostburg, MD
Elevation: 2100 ft
Nearby Weather Stations
Active Advisory: Winter Weather Advisory Active Notice: Public Information Statement

Elev 2100 ft 39.66 °N, 78.93 °W | Updated 14 seconds ago

Overcast
Overcast
26.1 °F
Feels Like 26 °F
N
0.4
Wind Variable Wind from WSW
Gusts 2.5 mph

Today
High -- | Low -- °F
--% Chance of Precip.
Yesterday
High -- | Low -- °F
Precip. -- in
Pressure 29.61 in
Visibility 10.0 miles
Clouds Mostly Cloudy 1000 ft
Mostly Cloudy 1600 ft
Mostly Cloudy 2700 ft
Windchill 26 °F
Dew Point 15 °F
Humidity 62%
Rainfall 0.00 in
Snow Depth Not available.
7:15 AM 5:44 PM
New Moon, 2% visible
METAR KCBE 091813Z AUTO 27007KT 10SM BKN010 BKN016 BKN027 00/M04 A2961 RMK AO1
Pressure 29.61 in
Visibility 10.0 miles
Clouds Mostly Cloudy 1000 ft
Mostly Cloudy 1600 ft
Mostly Cloudy 2700 ft
Windchill 26 °F
Dew Point 15 °F
Humidity 62%
Rainfall 0.00 in
Snow Depth Not available.
7:15 AM 5:44 PM
New Moon, 2% visible
METAR KCBE 091813Z AUTO 27007KT 10SM BKN010 BKN016 BKN027 00/M04 A2961 RMK AO1

10-Day Weather Forecast

Almanac

Astronomy

Feb. 09, 2016 Rise Set
Actual Time
Civil Twilight
Nautical Twilight
Astronomical Twilight
Moon
Length of Visible Light
Length of Day
Tomorrow will be .
, % of the Moon is Illuminated

Today's Extremes

State Highs State Lows

Community

WunderPhotos

Upload Photos

1,891,655 photos uploaded!

WunderBlog® & News

Nearby

Air Quality

  Air Quality AQ Index Pollutant
Not available.

Snow Depth

Station Depth Elevation

Earthquake Activity

City Distance Mag. Time & Date
Minimum magnitude displayed is 2.5.

Coastal Water Temperatures

Place Temperature

Stations

Nearby Weather Stations

Station Location Temp. Windchill Dew Point Humidity Wind Precip. Elev Updated Type
                   

Watches & Warnings

Winter Weather Advisory
Issued: 1:20 PM EST Feb. 9, 2016 – National Weather Service

... Winter Weather Advisory remains in effect until 6 PM EST
Wednesday...

* precipitation type... snow.

* Accumulations... snow accumulation of 4 to 8 inches.

* Timing... snow will continue through Wednesday and may become
heavy at times. Periods of snow will continue into Wednesday
night and Thursday.

* Impacts... snow covered roads and travel disruptions.

* Winds... west 10 to 20 mph with gusts up to 30 mph.

* Temperatures... in the lower 20s.

Precautionary/preparedness actions...

A Winter Weather Advisory for snow means that periods of snow
will cause primarily travel difficulties. Be prepared for snow
covered roads and limited visibilities... and use caution while
driving.